CDT,Max TemperatureF,Mean TemperatureF,Min TemperatureF,Max Dew PointF,MeanDew PointF,Min DewpointF,Max Humidity, Mean Humidity, Min Humidity, Max Sea Level PressureIn, Mean Sea Level PressureIn, Min Sea Level PressureIn, Max VisibilityMiles, Mean VisibilityMiles, Min VisibilityMiles, Max Wind SpeedMPH, Mean Wind SpeedMPH, Max Gust SpeedMPH,PrecipitationIn, CloudCover, Events, WindDirDegrees
2013-10-1,77,68,59,61,54,39,82,63,43,29.91,29.77,29.71,10,10,10,15,9,23,0.00,0,,239
2013-10-2,71,58,44,54,42,36,94,56,28,30.08,30.02,29.92,10,10,5,13,4,,0.00,0,,226
2013-10-3,64,56,48,57,54,46,100,87,68,30.00,29.94,29.91,10,10,5,17,6,22,0.23,5,,60
2013-10-4,60,56,53,55,54,52,100,93,88,30.07,30.01,29.92,10,10,4,18,10,25,0.26,8,,41
2013-10-5,64,60,55,61,57,54,100,90,77,30.05,29.91,29.73,10,8,1,20,13,28,0.68,8,Thunderstorm,83
2013-10-6,66,58,50,63,51,41,100,77,55,29.73,29.65,29.61,10,10,1,10,6,20,0.04,6,,252
2013-10-7,62,52,39,46,41,36,100,69,37,30.05,29.81,29.62,10,10,10,17,5,22,0.00,3,,322
2013-10-8,68,52,37,55,48,37,100,76,43,30.13,30.09,30.05,10,10,7,16,5,22,0.00,0,,196
2013-10-9,60,58,57,52,52,52,82,78,72,30.10,30.10,30.09,10,10,10,12,9,17,0.00,0,,216
2013-10-10,68,60,48,55,52,48,100,74,52,30.17,30.11,30.07,10,9,0,12,5,,0.00,0,,160
2013-10-11,66,54,42,59,50,39,100,81,55,30.09,30.04,29.95,10,7,0,17,4,22,0.00,1,,160
2013-10-12,66,58,51,61,53,37,94,76,52,30.05,29.92,29.86,10,9,3,17,10,25,0.14,2,Thunderstorm,205
2013-10-13,57,47,37,45,39,36,100,72,47,30.40,30.28,30.06,10,10,10,12,5,,0.00,2,,287
2013-10-14,57,45,33,46,40,34,100,78,58,30.44,30.36,30.20,10,10,10,13,4,17,0.00,0,,68
2013-10-15,57,54,50,55,51,45,100,87,72,30.20,29.89,29.68,10,8,2,20,10,23,0.38,4,,165
2013-10-16,51,48,44,48,43,37,94,83,71,29.89,29.78,29.66,10,9,3,14,7,22,0.05,8,,307
2013-10-17,51,42,32,41,37,32,100,80,58,29.89,29.81,29.74,10,9,0,7,1,,0.00,2,,259
2013-10-18,48,42,37,45,40,36,100,90,81,29.87,29.79,29.74,10,9,2,10,3,16,0.09,7,,323
2013-10-19,51,41,32,39,35,30,100,81,47,29.85,29.73,29.66,10,9,0,20,2,26,0.00,1,,241
2013-10-20,44,37,30,41,35,28,100,87,61,29.81,29.74,29.63,10,9,5,10,3,,0.08,4,,255
2013-10-21,42,37,32,39,29,19,93,73,52,29.81,29.75,29.63,10,9,4,13,6,24,0.02,6,,271
2013-10-22,46,38,30,32,28,25,93,70,46,29.93,29.84,29.73,10,10,10,17,8,22,0.00,3,,310
2013-10-23,44,35,28,30,26,21,93,72,42,29.93,29.90,29.86,10,10,10,15,4,20,0.00,3,,312
2013-10-24,44,37,30,34,28,25,93,73,49,30.20,30.06,29.93,10,10,7,10,4,20,0.00,4,,303
2013-10-25,50,37,26,30,27,23,93,66,43,30.25,30.07,29.65,10,10,10,20,6,31,0.00,3,,251
2013-10-26,50,42,35,36,29,21,70,55,43,30.00,29.81,29.61,10,10,10,22,10,29,0.00,6,,319
2013-10-27,50,42,35,34,30,27,87,64,43,30.07,29.92,29.81,10,10,10,16,5,23,0.00,5,,261
2013-10-28,39,36,28,32,24,18,80,64,48,30.46,30.37,30.08,10,10,10,18,12,28,0.00,3,,38
2013-10-29,42,34,26,37,29,21,93,80,70,30.46,30.35,30.18,10,10,8,8,5,,0.00,5,,56
2013-10-30,55,45,37,52,44,36,100,92,82,30.17,30.01,29.75,10,6,0,14,4,17,0.13,7,,170
2013-10-31,57,53,51,54,52,50,100,94,88,29.75,29.39,29.10,10,3,0,8,3,,0.68,8,,150